createdAt,value
2018-03-01T00:00:01.374Z,-3.84
2018-03-01T00:03:24.692Z,-3.83
2018-03-01T00:06:48.068Z,-3.74
2018-03-01T00:10:11.379Z,-4.17
2018-03-01T00:13:34.804Z,-4.07
2018-03-01T00:16:58.173Z,-4.00
2018-03-01T00:20:21.467Z,-3.97
2018-03-01T00:23:45.505Z,-4.14
2018-03-01T00:27:09.566Z,-3.99
2018-03-01T00:30:32.948Z,-4.04
2018-03-01T00:33:56.999Z,-4.04
2018-03-01T00:37:21.040Z,-3.88
2018-03-01T00:40:44.355Z,-3.52
2018-03-01T00:44:08.405Z,-3.73
2018-03-01T00:47:31.717Z,-3.71
2018-03-01T00:50:55.069Z,-3.36
2018-03-01T00:54:19.157Z,-3.59
2018-03-01T00:57:43.195Z,-3.83
2018-03-01T01:01:08.276Z,-3.67
2018-03-01T01:04:31.705Z,-3.81
2018-03-01T01:07:55.044Z,-3.38
2018-03-01T01:11:19.168Z,-3.84
2018-03-01T01:14:42.490Z,-3.69
2018-03-01T01:18:05.767Z,-3.48
2018-03-01T01:21:29.837Z,-3.32
2018-03-01T01:24:53.129Z,-3.75
2018-03-01T01:28:17.251Z,-3.73
2018-03-01T01:31:40.567Z,-3.69
2018-03-01T01:35:03.847Z,-3.47
2018-03-01T01:38:27.895Z,-3.60
2018-03-01T01:41:51.937Z,-3.69
2018-03-01T01:45:15.213Z,-3.86
2018-03-01T01:48:38.513Z,-3.85
2018-03-01T01:52:02.561Z,-3.73
2018-03-01T01:55:25.893Z,-3.91
2018-03-01T01:58:49.191Z,-4.21
2018-03-01T02:02:12.503Z,-3.81
2018-03-01T02:05:36.552Z,-4.04
2018-03-01T02:08:59.821Z,-4.11
2018-03-01T02:12:23.125Z,-4.19
2018-03-01T02:15:46.438Z,-3.74
2018-03-01T02:19:10.491Z,-3.75
2018-03-01T02:22:33.770Z,-3.93
2018-03-01T02:25:57.075Z,-3.85
2018-03-01T02:29:21.128Z,-3.89
2018-03-01T02:32:44.508Z,-4.21
2018-03-01T02:36:07.817Z,-3.73
2018-03-01T02:39:31.172Z,-3.67
2018-03-01T02:42:54.449Z,-3.80
2018-03-01T02:46:17.744Z,-3.74
2018-03-01T02:49:41.804Z,-3.90
2018-03-01T02:53:05.147Z,-3.64
2018-03-01T02:56:29.213Z,-3.88
2018-03-01T02:59:52.548Z,-3.93
2018-03-01T03:03:15.916Z,-3.90
2018-03-01T03:06:39.290Z,-3.91
2018-03-01T03:10:02.655Z,-4.00
2018-03-01T03:13:25.965Z,-3.84
2018-03-01T03:16:49.267Z,-4.14
2018-03-01T03:20:13.310Z,-4.02
2018-03-01T03:23:36.651Z,-4.19
2018-03-01T03:26:59.950Z,-4.06
2018-03-01T03:30:24.005Z,-4.21
2018-03-01T03:33:48.143Z,-4.15
2018-03-01T03:37:11.512Z,-3.83
2018-03-01T03:40:34.884Z,-3.74
2018-03-01T03:43:58.253Z,-4.16
2018-03-01T03:47:21.539Z,-4.41
2018-03-01T03:50:45.666Z,-3.91
2018-03-01T03:54:09.805Z,-4.00
2018-03-01T03:57:33.934Z,-3.83
2018-03-01T04:00:57.228Z,-3.55
2018-03-01T04:04:20.567Z,-3.95
2018-03-01T04:07:43.859Z,-3.86
2018-03-01T04:11:07.929Z,-4.20
2018-03-01T04:14:31.236Z,-3.84
2018-03-01T04:17:54.556Z,-3.85
2018-03-01T04:21:17.862Z,-3.73
2018-03-01T04:24:41.934Z,-3.96
2018-03-01T04:28:06.028Z,-4.11
2018-03-01T04:31:30.110Z,-4.55
2018-03-01T04:34:54.233Z,-4.56
2018-03-01T04:38:17.543Z,-4.38
2018-03-01T04:41:40.824Z,-4.90
2018-03-01T04:45:04.110Z,-4.81
2018-03-01T04:48:28.173Z,-4.51
2018-03-01T04:51:55.446Z,-4.86
2018-03-01T04:55:18.804Z,-4.48
2018-03-01T04:58:42.178Z,-4.69
2018-03-01T05:02:05.551Z,-5.01
2018-03-01T05:05:28.868Z,-4.43
2018-03-01T05:08:52.143Z,-4.34
2018-03-01T05:12:16.252Z,-4.22
2018-03-01T05:15:40.361Z,-4.43
2018-03-01T05:19:03.668Z,-4.29
2018-03-01T05:22:26.993Z,-4.87
2018-03-01T05:25:50.287Z,-4.44
2018-03-01T05:29:14.357Z,-4.76
2018-03-01T05:32:37.658Z,-4.82
2018-03-01T05:36:00.995Z,-4.72
2018-03-01T05:39:25.131Z,-4.97
2018-03-01T05:42:49.495Z,-4.84
2018-03-01T05:46:12.897Z,-4.64
2018-03-01T05:49:36.267Z,-4.76
2018-03-01T05:53:02.243Z,-5.10
2018-03-01T05:56:26.386Z,-5.03
2018-03-01T05:59:50.524Z,-5.23
2018-03-01T06:03:13.894Z,-5.25
2018-03-01T06:06:38.081Z,-5.05
2018-03-01T06:10:01.406Z,-4.94
2018-03-01T06:13:25.539Z,-4.97
2018-03-01T06:16:48.982Z,-5.08
2018-03-01T06:20:13.179Z,-5.65
2018-03-01T06:23:36.572Z,-5.40
2018-03-01T06:26:59.924Z,-5.60
2018-03-01T06:30:23.398Z,-5.65
2018-03-01T06:33:47.467Z,-5.81
2018-03-01T06:37:11.556Z,-5.34
2018-03-01T06:40:34.936Z,-5.50
2018-03-01T06:43:58.309Z,-5.69
2018-03-01T06:47:21.552Z,-5.34
2018-03-01T06:50:45.719Z,-5.46
2018-03-01T06:54:09.099Z,-5.51
2018-03-01T06:57:32.466Z,-5.69
2018-03-01T07:00:55.750Z,-5.50
2018-03-01T07:04:19.113Z,-5.08
2018-03-01T07:07:43.208Z,-5.06
2018-03-01T07:11:07.345Z,-5.19
2018-03-01T07:14:31.481Z,-5.12
2018-03-01T07:17:54.850Z,-5.36
2018-03-01T07:21:18.119Z,-5.55
2018-03-01T07:24:41.484Z,-5.38
2018-03-01T07:28:04.856Z,-4.87
2018-03-01T07:31:28.188Z,-5.19
2018-03-01T07:34:52.314Z,-4.95
2018-03-01T07:38:15.588Z,-5.29
2018-03-01T07:41:39.719Z,-4.72
2018-03-01T07:45:03.024Z,-4.69
2018-03-01T07:48:26.406Z,-5.06
2018-03-01T07:51:49.743Z,-4.84
2018-03-01T07:55:13.787Z,-4.30
2018-03-01T07:58:37.872Z,-4.84
2018-03-01T08:02:01.993Z,-4.71
2018-03-01T08:05:26.057Z,-4.92
2018-03-01T08:08:50.098Z,-5.01
2018-03-01T08:12:13.377Z,-4.89
2018-03-01T08:15:36.659Z,-4.67
2018-03-01T08:19:00.785Z,-4.83
2018-03-01T08:22:24.089Z,-4.90
2018-03-01T08:25:47.472Z,-4.66
2018-03-01T08:29:10.778Z,-4.51
2018-03-01T08:32:34.067Z,-4.90
2018-03-01T08:35:58.136Z,-5.20
2018-03-01T08:39:21.451Z,-4.71
2018-03-01T08:42:45.492Z,-4.98
2018-03-01T08:46:08.799Z,-5.06
2018-03-01T08:49:32.937Z,-5.17
2018-03-01T08:52:56.216Z,-4.49
2018-03-01T08:56:19.487Z,-4.39
2018-03-01T08:59:42.777Z,-4.77
2018-03-01T09:03:06.907Z,-4.85
2018-03-01T09:06:30.275Z,-4.72
2018-03-01T09:09:53.616Z,-4.47
2018-03-01T09:13:17.654Z,-5.05
2018-03-01T09:16:40.953Z,-4.66
2018-03-01T09:20:05.083Z,-4.55
2018-03-01T09:23:28.359Z,-4.79
2018-03-01T09:26:52.400Z,-4.44
2018-03-01T09:30:16.443Z,-3.96
2018-03-01T09:33:39.777Z,-3.66
2018-03-01T09:37:03.111Z,-4.76
2018-03-01T09:40:26.399Z,-4.78
2018-03-01T09:43:50.435Z,-4.08
2018-03-01T09:47:14.491Z,-4.59
2018-03-01T09:50:37.791Z,-4.46
2018-03-01T09:54:01.924Z,-4.37
2018-03-01T09:57:26.059Z,-4.13
2018-03-01T10:00:50.204Z,-3.75
2018-03-01T10:04:14.880Z,-4.22
2018-03-01T10:07:38.978Z,-4.17
2018-03-01T10:11:03.062Z,-3.88
2018-03-01T10:14:26.431Z,-4.02
2018-03-01T10:17:49.721Z,-4.46
2018-03-01T10:21:13.756Z,-3.74
2018-03-01T10:24:37.106Z,-3.90
2018-03-01T10:28:00.403Z,-3.79
2018-03-01T10:31:23.750Z,-4.33
2018-03-01T10:34:47.893Z,-3.95
2018-03-01T10:38:12.025Z,-3.65
2018-03-01T10:41:35.306Z,-3.66
2018-03-01T10:44:59.427Z,-3.60
2018-03-01T10:48:22.703Z,-3.74
2018-03-01T10:51:46.795Z,-3.75
2018-03-01T10:55:10.922Z,-3.56
2018-03-01T10:58:34.288Z,-3.34
2018-03-01T11:01:59.866Z,-3.14
2018-03-01T11:05:24.005Z,-2.97
2018-03-01T11:08:48.083Z,-2.93
2018-03-01T11:12:12.122Z,-3.07
2018-03-01T11:15:35.399Z,-2.75
2018-03-01T11:18:59.446Z,-2.24
2018-03-01T11:22:23.566Z,-2.10
2018-03-01T11:25:47.014Z,-2.38
2018-03-01T11:29:10.377Z,-2.75
2018-03-01T11:32:33.778Z,-2.15
2018-03-01T11:35:57.915Z,-1.59
2018-03-01T11:39:21.285Z,-2.36
2018-03-01T11:42:44.571Z,-1.56
2018-03-01T11:46:08.689Z,-1.82
2018-03-01T11:49:31.953Z,-2.07
2018-03-01T11:52:55.333Z,-1.77
2018-03-01T11:56:18.623Z,-2.60
2018-03-01T11:59:41.962Z,-1.93
2018-03-01T12:03:05.351Z,-1.48
2018-03-01T12:06:29.475Z,-1.90
2018-03-01T12:09:52.750Z,-2.06
2018-03-01T12:13:16.025Z,-2.05
2018-03-01T12:16:40.151Z,-2.40
2018-03-01T12:20:03.777Z,-2.64
2018-03-01T12:23:27.199Z,-2.17
2018-03-01T12:26:50.465Z,-2.20
2018-03-01T12:30:13.782Z,-1.87
2018-03-01T12:33:37.055Z,-2.08
2018-03-01T12:37:01.251Z,-2.05
2018-03-01T12:40:25.366Z,-2.44
2018-03-01T12:43:48.701Z,-1.72
2018-03-01T12:47:12.072Z,-1.56
2018-03-01T12:50:35.441Z,-1.06
2018-03-01T12:53:58.749Z,-0.86
2018-03-01T12:57:22.143Z,-1.77
2018-03-01T13:00:46.265Z,-0.92
2018-03-01T13:04:10.414Z,-1.11
2018-03-01T13:07:34.499Z,-0.78
2018-03-01T13:10:58.618Z,0.05
2018-03-01T13:14:22.046Z,-0.45
2018-03-01T13:17:45.378Z,-0.92
2018-03-01T13:21:09.449Z,-0.38
2018-03-01T13:24:32.877Z,-0.13
2018-03-01T13:27:56.197Z,-0.13
2018-03-01T13:31:19.497Z,-0.53
2018-03-01T13:34:47.217Z,-0.34
2018-03-01T13:38:10.606Z,-0.16
2018-03-01T13:41:33.877Z,-0.95
2018-03-01T13:44:57.231Z,-0.71
2018-03-01T13:48:20.509Z,-0.42
2018-03-01T13:51:43.790Z,-0.56
2018-03-01T13:55:07.920Z,-0.52
2018-03-01T13:58:31.249Z,-0.67
2018-03-01T14:01:55.332Z,-0.03
2018-03-01T14:05:19.467Z,-0.79
2018-03-01T14:08:42.731Z,-0.57
2018-03-01T14:16:02.355Z,-0.50
2018-03-01T14:19:28.225Z,-0.93
2018-03-01T14:22:52.295Z,-0.31
2018-03-01T14:26:18.614Z,-0.67
2018-03-01T14:30:02.629Z,-0.59
2018-03-01T14:33:26.761Z,-0.98
2018-03-01T14:36:50.826Z,-0.93
2018-03-01T14:40:14.121Z,-0.93
2018-03-01T14:43:38.351Z,-1.05
2018-03-01T14:47:03.501Z,-1.12
2018-03-01T14:50:26.784Z,-0.66
2018-03-01T14:53:50.816Z,0.00
2018-03-01T14:57:14.915Z,-0.15
2018-03-01T15:00:38.205Z,-0.30
2018-03-01T15:04:01.540Z,-0.33
2018-03-01T15:07:25.580Z,0.03
2018-03-01T15:10:49.638Z,-0.26
2018-03-01T15:14:17.001Z,0.22
2018-03-01T15:17:40.320Z,0.01
2018-03-01T15:21:03.891Z,0.07
2018-03-01T15:24:28.074Z,-0.32
2018-03-01T15:27:51.468Z,-0.53
2018-03-01T15:31:14.767Z,-0.38
2018-03-01T15:34:38.999Z,-0.40
2018-03-01T15:38:02.357Z,-0.42
2018-03-01T15:41:26.451Z,-0.08
2018-03-01T15:44:49.825Z,-0.67
2018-03-01T15:48:13.873Z,-0.99
2018-03-01T15:51:38.051Z,-0.49
2018-03-01T15:55:02.163Z,-0.89
2018-03-01T15:58:26.526Z,-0.79
2018-03-01T16:01:50.601Z,-0.80
2018-03-01T16:05:14.020Z,-0.55
2018-03-01T16:08:37.347Z,-1.02
2018-03-01T16:12:01.453Z,-0.51
2018-03-01T16:15:24.804Z,-0.18
2018-03-01T16:26:48.983Z,-0.65
2018-03-01T16:30:16.081Z,-0.87
2018-03-01T16:33:39.611Z,-0.78
2018-03-01T16:37:02.927Z,-0.79
2018-03-01T16:40:26.288Z,-0.83
2018-03-01T16:43:49.777Z,-0.53
2018-03-01T16:47:13.313Z,-0.87
2018-03-01T16:50:36.650Z,-0.98
2018-03-01T16:54:00.798Z,-1.09
2018-03-01T16:57:24.053Z,-0.60
2018-03-01T17:00:48.117Z,-0.51
2018-03-01T17:04:11.409Z,-1.11
2018-03-01T17:07:35.441Z,-1.16
2018-03-01T17:10:59.665Z,-0.94
2018-03-01T17:14:22.931Z,-0.96
2018-03-01T17:17:46.257Z,-0.67
2018-03-01T17:21:09.543Z,-1.17
2018-03-01T17:24:33.597Z,-1.18
2018-03-01T17:27:56.919Z,-1.13
2018-03-01T17:31:20.178Z,-1.13
2018-03-01T17:34:43.480Z,-1.09
2018-03-01T17:38:07.583Z,-0.84
2018-03-01T17:41:30.875Z,-0.96
2018-03-01T17:44:54.235Z,-1.01
2018-03-01T17:48:17.514Z,-0.95
2018-03-01T17:51:41.590Z,-0.98
2018-03-01T17:55:04.858Z,-0.70
2018-03-01T17:58:28.149Z,-0.61
2018-03-01T18:01:51.899Z,-0.67
2018-03-01T18:05:15.230Z,-0.94
2018-03-01T18:08:38.520Z,-0.94
2018-03-01T18:12:02.667Z,-0.83
2018-03-01T18:15:28.047Z,-0.56
2018-03-01T18:18:52.302Z,-0.62
2018-03-01T18:22:15.662Z,-0.31
2018-03-01T18:25:39.820Z,-0.20
2018-03-01T18:29:04.724Z,-0.85
2018-03-01T18:32:28.077Z,-0.72
2018-03-01T18:35:51.479Z,-1.01
2018-03-01T18:39:14.907Z,-0.60
2018-03-01T18:42:38.412Z,-0.71
2018-03-01T18:46:02.526Z,-0.89
2018-03-01T18:49:25.883Z,-0.89
2018-03-01T18:52:50.002Z,-0.77
2018-03-01T18:56:13.392Z,-0.83
2018-03-01T18:59:36.743Z,-0.65
2018-03-01T19:03:03.388Z,-1.08
2018-03-01T19:06:29.442Z,-0.96
2018-03-01T19:09:52.954Z,-0.95
2018-03-01T19:13:17.253Z,-1.18
2018-03-01T19:16:41.732Z,-0.86
2018-03-01T19:20:05.835Z,-1.22
2018-03-01T19:23:29.138Z,-1.13
2018-03-01T19:26:53.512Z,-1.22
2018-03-01T19:30:17.004Z,-1.19
2018-03-01T19:33:41.210Z,-1.47
2018-03-01T19:37:04.645Z,-1.22
2018-03-01T19:40:28.058Z,-1.03
2018-03-01T19:43:51.352Z,-1.10
2018-03-01T19:47:15.457Z,-1.29
2018-03-01T19:50:39.512Z,-1.21
2018-03-01T19:54:02.829Z,-0.83
2018-03-01T19:57:26.142Z,-1.15
2018-03-01T20:00:49.442Z,-1.50
2018-03-01T20:04:13.483Z,-1.59
2018-03-01T20:07:37.714Z,-1.57
2018-03-01T20:11:01.775Z,-1.53
2018-03-01T20:14:25.099Z,-1.74
2018-03-01T20:17:48.423Z,-1.58
2018-03-01T20:21:11.851Z,-1.77
2018-03-01T20:24:36.043Z,-1.86
2018-03-01T20:27:59.342Z,-1.56
2018-03-01T20:31:22.725Z,-1.68
2018-03-01T20:34:46.099Z,-1.73
2018-03-01T20:38:09.416Z,-1.70
2018-03-01T20:41:32.749Z,-1.85
2018-03-01T20:44:56.931Z,-1.87
2018-03-01T20:48:20.224Z,-1.95
2018-03-01T20:51:43.501Z,-1.72
2018-03-01T20:55:06.884Z,-1.97
2018-03-01T20:58:30.314Z,-1.99
2018-03-01T21:01:53.684Z,-1.97
2018-03-01T21:05:17.749Z,-2.28
2018-03-01T21:08:41.146Z,-2.27
2018-03-01T21:12:06.194Z,-2.43
2018-03-01T21:15:29.535Z,-2.53
2018-03-01T21:18:53.643Z,-2.12
2018-03-01T21:22:16.971Z,-2.37
2018-03-01T21:25:40.343Z,-2.16
2018-03-01T21:29:03.720Z,-2.31
2018-03-01T21:32:27.807Z,-2.39
2018-03-01T21:35:52.026Z,-2.22
2018-03-01T21:39:15.812Z,-2.31
2018-03-01T21:42:39.169Z,-2.18
2018-03-01T21:46:02.451Z,-2.22
2018-03-01T21:49:25.825Z,-2.19
2018-03-01T21:52:49.232Z,-2.34
2018-03-01T21:56:12.527Z,-2.14
2018-03-01T21:59:36.609Z,-2.02
2018-03-01T22:03:00.816Z,-2.18
2018-03-01T22:06:24.171Z,-1.90
2018-03-01T22:09:48.271Z,-2.19
2018-03-01T22:13:12.804Z,-2.18
2018-03-01T22:16:39.562Z,-2.44
2018-03-01T22:20:03.629Z,-2.56
2018-03-01T22:23:27.005Z,-2.51
2018-03-01T22:26:50.373Z,-2.54
2018-03-01T22:30:13.834Z,-2.47
2018-03-01T22:33:38.242Z,-2.44
2018-03-01T22:37:01.612Z,-2.54
2018-03-01T22:40:25.813Z,-2.60
2018-03-01T22:43:50.034Z,-2.63
2018-03-01T22:47:13.616Z,-2.89
2018-03-01T22:50:36.989Z,-2.85
2018-03-01T22:54:00.294Z,-2.77
2018-03-01T22:57:23.777Z,-2.72
2018-03-01T23:00:57.803Z,-2.59
2018-03-01T23:04:21.935Z,-2.88
2018-03-01T23:07:45.319Z,-2.69
2018-03-01T23:11:09.407Z,-2.75
2018-03-01T23:14:33.554Z,-3.02
2018-03-01T23:17:57.723Z,-2.81
2018-03-01T23:21:21.097Z,-2.65
2018-03-01T23:24:44.376Z,-2.87
2018-03-01T23:28:08.651Z,-2.87
2018-03-01T23:31:32.726Z,-2.90
2018-03-01T23:34:56.503Z,-3.11
2018-03-01T23:38:20.136Z,-3.04
2018-03-01T23:41:43.723Z,-2.76
2018-03-01T23:45:07.294Z,-2.82
2018-03-01T23:48:30.799Z,-3.02
2018-03-01T23:51:54.564Z,-3.04
2018-03-01T23:55:19.248Z,-2.87
2018-03-01T23:58:42.956Z,-2.82
